• Join FlightAware (Why Join?)
  • Login
  • US Flag 
07:06PM EST


 

Airport Tracker/Info


-or-


 

Live Flight TrackerFlight Track Log ✈ N415JA ✈ 13-Feb-2014 ✈ KSUS - KMIA

Flight Track Log - Related Links

Times and Time Zones

All times are in EST time to prevent confusion due to time zone crossing. See the N415JA flight status page for this flight to view local times or setup timezone preferences in your user account.

Time Position Orientation Groundspeed Altitude Reporting Facility
EST Latitude Longitude Course Direction KTS MPH feet Rate Location/Type
09:42PM 38.6500 -90.6833 130° Southeast 165 190 2,000  Level Gateway (St. Louis) TRACON
09:43PM 38.6122 -90.7142 213° Southwest 240 276 3,900 2,820 Climbing Kansas City Center
09:44PM 38.5489 -90.6544 144° Southeast 284 327 7,600 3,480 Climbing Kansas City Center
09:45PM 38.5086 -90.5597 118° Southeast 302 348 11,000 2,940 Climbing Kansas City Center
09:46PM 38.4628 -90.4544 119° Southeast 337 388 13,700 2,160 Climbing Kansas City Center
09:47PM 38.4793 -89.9271 130° Southeast  Level FlightAware Approximate
09:47PM 38.4069 -90.3244 119° Southeast 366 421 15,500  Level Kansas City Center
09:48PM 38.3525 -90.1975 119° Southeast 381 438 18,500 2,580 Climbing Kansas City Center
09:49PM 38.2947 -90.0719 120° Southeast 403 464 20,900 2,100 Climbing Kansas City Center
09:50PM 38.2078 -89.9711 138° Southeast 420 483 22,900 2,100 Climbing Kansas City Center
09:51PM 38.0917 -89.8764 147° Southeast 435 501 25,200 2,160 Climbing Kansas City Center
09:52PM 37.9881 -89.7919 147° Southeast 442 509 27,300 1,800 Climbing Kansas City Center
09:53PM 37.8811 -89.7058 148° Southeast 453 521 28,900 1,380 Climbing Kansas City Center
09:54PM 37.7867 -89.6283 147° Southeast 460 529 30,200 1,440 Climbing Kansas City Center
09:55PM 37.6567 -89.5247 148° Southeast 462 532 31,900 1,440 Climbing Kansas City Center
09:56PM 37.5469 -89.4356 147° Southeast 463 533 33,200 1,080 Climbing Kansas City Center
09:57PM 37.4367 -89.3483 148° Southeast 464 534 34,200 1,020 Climbing Kansas City Center
09:58PM 37.3478 -89.2794 148° Southeast 468 539 35,200 780 Climbing Memphis Center
09:59PM 37.2369 -89.1908 148° Southeast 469 540 35,700 540 Climbing Memphis Center
10:00PM 37.1231 -89.1006 148° Southeast 477 549 36,400 720 Climbing Memphis Center
10:01PM 37.0106 -89.0106 147° Southeast 479 551 37,200 540 Climbing Memphis Center
10:02PM 36.8969 -88.9208 148° Southeast 479 551 37,600 420 Climbing Memphis Center
10:03PM 36.7828 -88.8331 148° Southeast 478 550 38,100 480 Climbing Memphis Center
10:04PM 36.6681 -88.7442 148° Southeast 481 554 38,600 420 Climbing Memphis Center
10:05PM 36.5342 -88.6389 148° Southeast 474 545 39,000 180 Climbing Memphis Center
10:06PM 36.4219 -88.5522 148° Southeast 471 542 39,000  Level Memphis Center
10:07PM 36.3089 -88.4642 148° Southeast 474 545 39,000  Level Memphis Center
10:08PM 36.1950 -88.3764 148° Southeast 478 550 39,000  Level Memphis Center
10:09PM 36.0806 -88.2889 148° Southeast 480 552 39,000  Level Memphis Center
10:10PM 35.9672 -88.2019 148° Southeast 479 551 39,000  Level Memphis Center
10:11PM 35.8606 -88.1211 148° Southeast 478 550 39,000  Level Memphis Center
10:12PM 35.7450 -88.0331 148° Southeast 482 555 39,000  Level Memphis Center
10:13PM 35.6303 -87.9461 148° Southeast 481 554 39,000  Level Memphis Center
10:14PM 35.5153 -87.8600 149° Southeast 480 552 39,000  Level Memphis Center
10:15PM 35.3900 -87.7661 149° Southeast 477 549 39,000  Level Memphis Center
10:16PM 35.2764 -87.6806 148° Southeast 479 551 39,000  Level Memphis Center
10:17PM 35.1628 -87.5964 149° Southeast 477 549 39,000  Level Memphis Center
10:18PM 35.0492 -87.5122 149° Southeast 477 549 39,000  Level Memphis Center
10:19PM 34.9361 -87.4283 149° Southeast 475 547 39,000  Level Memphis Center
10:20PM 34.8217 -87.3439 149° Southeast 476 548 39,000  Level Memphis Center
10:21PM 34.7064 -87.2586 149° Southeast 479 551 39,000  Level Memphis Center
10:22PM 34.6117 -87.1886 149° Southeast 482 555 39,000  Level Atlanta Center
10:23PM 34.4992 -87.1036 148° Southeast 477 549 39,000  Level Atlanta Center
10:24PM 34.3842 -87.0239 150° Southeast 483 556 39,000  Level Atlanta Center
10:25PM 34.2714 -86.9394 148° Southeast 478 550 39,000  Level Atlanta Center
10:26PM 34.1586 -86.8581 149° Southeast 478 550 39,000  Level Atlanta Center
10:27PM 34.0456 -86.7764 149° Southeast 478 550 39,000  Level Atlanta Center
10:28PM 33.9347 -86.6978 150° Southeast 478 550 39,000  Level Atlanta Center
10:29PM 33.8236 -86.6169 149° Southeast 478 550 39,000  Level Atlanta Center
10:30PM 33.7125 -86.5386 150° Southeast 473 544 39,000  Level Atlanta Center
10:31PM 33.5994 -86.4606 150° Southeast 473 544 39,000  Level Atlanta Center
10:32PM 33.5006 -86.3856 148° Southeast 468 539 39,000  Level Atlanta Center
10:33PM 33.3894 -86.3053 149° Southeast 468 539 39,000  Level Atlanta Center
10:34PM 33.2761 -86.2253 149° Southeast 468 539 39,000  Level Atlanta Center
10:35PM 33.1647 -86.1358 146° Southeast 473 544 39,000  Level Atlanta Center
10:36PM 33.0533 -86.0661 152° Southeast 461 531 39,000  Level Atlanta Center
10:37PM 32.9375 -85.9917 152° Southeast 461 531 39,000  Level Atlanta Center
10:38PM 32.8242 -85.9125 150° Southeast 461 531 39,000  Level Atlanta Center
10:39PM 32.7106 -85.8336 150° Southeast 461 531 39,000  Level Atlanta Center
10:40PM 32.5967 -85.7547 150° Southeast 466 536 39,100 300 Climbing Atlanta Center
10:41PM 32.4850 -85.6789 150° Southeast 466 536 39,600 240 Climbing Atlanta Center
10:43PM 32.2272 -85.5031 150° Southeast 462 532 40,000 120 Climbing Jacksonville Center
10:44PM 32.1161 -85.4311 151° Southeast 457 526 40,000  Level Jacksonville Center
10:45PM 32.0028 -85.3522 149° Southeast 457 526 40,000  Level Jacksonville Center
10:46PM 31.8872 -85.2781 151° Southeast 462 532 40,000  Level Jacksonville Center
10:47PM 31.7781 -85.1994 149° Southeast 462 532 40,000  Level Jacksonville Center
10:48PM 31.6872 -85.1411 151° Southeast 462 532 40,000  Level Jacksonville Center
10:49PM 31.5656 -85.0603 150° Southeast 462 532 40,000  Level Jacksonville Center
10:50PM 31.4539 -84.9869 151° Southeast 462 532 40,000  Level Jacksonville Center
10:51PM 31.3403 -84.9114 150° Southeast 462 532 40,000  Level Jacksonville Center
10:52PM 31.2289 -84.8361 150° Southeast 462 532 40,000  Level Jacksonville Center
10:53PM 31.1131 -84.7611 151° Southeast 467 537 40,000  Level Jacksonville Center
10:54PM 30.9992 -84.6861 151° Southeast 467 537 40,000  Level Jacksonville Center
10:55PM 30.8856 -84.6114 151° Southeast 467 537 40,000  Level Jacksonville Center
10:56PM 30.7614 -84.5244 149° Southeast 467 537 40,000  Level Jacksonville Center
10:57PM 30.6556 -84.4597 152° Southeast 472 543 40,000  Level Jacksonville Center
10:58PM 30.5294 -84.3758 150° Southeast 472 543 40,000  Level Jacksonville Center
10:59PM 30.4153 -84.3017 151° Southeast 472 543 40,000  Level Jacksonville Center
11:00PM 30.3033 -84.2278 150° Southeast 472 543 40,000  Level Jacksonville Center
11:01PM 30.2039 -84.1639 151° Southeast 472 543 40,000  Level Jacksonville Center
11:02PM 30.0897 -84.0906 151° Southeast 467 537 40,000  Level Jacksonville Center
11:03PM 29.9775 -84.0194 151° Southeast 467 537 40,000  Level Jacksonville Center
11:04PM 29.8656 -83.9464 150° Southeast 467 537 40,000  Level Jacksonville Center
11:05PM 29.7367 -83.8636 151° Southeast 467 537 40,000  Level Jacksonville Center
11:06PM 29.6244 -83.7956 152° Southeast 467 537 40,000  Level Jacksonville Center
11:07PM 29.5122 -83.7206 150° Southeast 467 537 40,000  Level Jacksonville Center
11:08PM 29.3978 -83.6481 151° Southeast 467 537 40,000  Level Jacksonville Center
11:09PM 29.2856 -83.5758 151° Southeast 467 537 40,000  Level Jacksonville Center
11:10PM 29.1753 -83.5061 151° Southeast 467 537 40,000  Level Jacksonville Center
11:11PM 29.0586 -83.4367 153° Southeast 462 532 40,000  Level Jacksonville Center
11:12PM 28.9483 -83.3647 150° Southeast 462 532 40,000  Level Jacksonville Center
11:13PM 28.8381 -83.2931 150° Southeast 455 524 40,000  Level Jacksonville Center
11:15PM 28.6536 -83.1803 152° Southeast 445 512 40,000  Level Miami Center
11:16PM 28.5519 -83.1181 152° Southeast 451 519 40,000  Level Miami Center
11:17PM 28.4444 -83.0506 151° Southeast 451 519 40,000  Level Miami Center
11:18PM 28.3328 -82.9808 151° Southeast 451 519 40,000  Level Miami Center
11:19PM 28.2211 -82.9111 151° Southeast 451 519 40,000  Level Miami Center
11:20PM 28.1111 -82.8442 152° Southeast 456 525 40,000 -60 Level Miami Center
11:21PM 27.9933 -82.7719 152° Southeast 462 532 39,900  Descending Miami Center
11:22PM 27.8786 -82.7169 157° South 462 532 40,000 -600 Climbing Miami Center
11:23PM 27.7678 -82.6736 161° South 447 514 38,800 -1,320 Descending Miami Center
11:24PM 27.6506 -82.6300 162° South 440 506 37,400 -900 Descending Miami Center
11:25PM 27.5294 -82.5842 161° South 426 490 37,000  Descending Miami Center
11:26PM 27.4122 -82.5411 162° South 431 496 37,400  Climbing Miami Center
11:27PM 27.3094 -82.5008 161° South 437 503 37,000 -240 Descending Miami Center
11:28PM 27.1961 -82.4628 163° South 437 503 37,000  Level Miami Center
11:29PM 27.0747 -82.4150 161° South 442 509 37,000  Level Miami Center
11:31PM 26.8748 -82.3365 160° South  Level FlightAware Approximate
11:38PM 26.2040 -81.8261 135° Southeast  Level FlightAware Approximate
11:39PM 26.1346 -81.7221 111° Southeast  Level FlightAware Approximate
11:40PM 26.0917 -81.5987 111° Southeast  Level FlightAware Approximate
11:41PM 26.0488 -81.4755 111° Southeast  Level FlightAware Approximate
11:42PM 26.0086 -81.3512 106° East  Level FlightAware Approximate
11:43PM 25.9699 -81.2264 110° East  Level FlightAware Approximate
11:44PM 25.9321 -81.1012 108° East  Level FlightAware Approximate
11:45PM 25.8943 -80.9773 114° Southeast  Level FlightAware Approximate
11:46PM 25.8453 -80.8573 119° Southeast  Level FlightAware Approximate
11:47PM 25.8420 -80.7293 85° East  Level FlightAware Approximate
11:48PM 25.8490 -80.5980 119° Southeast  Level FlightAware Approximate
11:49PM 25.7913 -80.4827 119° Southeast  Level FlightAware Approximate
11:50PM 25.7318 -80.3802 119° Southeast  Level FlightAware Approximate
11:51PM 25.7502 -80.2966 20° North  Level FlightAware Approximate
11:52PM 25.7833 -80.2833 20° North  Level FlightAware Approximate
11:53PM 25.7954 -80.2901 20° North  Level Estimated
11:54PM 25.7954 -80.2901 20° North  Level Estimated
11:55PM 25.7954 -80.2901 20° North  Level Estimated
11:56PM 25.7954 -80.2901 20° North  Level Estimated
11:57PM 25.7954 -80.2901 20° North  Level Estimated
11:58PM 25.7954 -80.2901 20° North  Level Estimated
11:59PM 25.7954 -80.2901 20° North  Level Estimated
12:00AM 25.7954 -80.2901 20° North  Level Estimated
12:01AM 25.7954 -80.2901 20° North  Level Estimated
12:02AM 25.7954 -80.2901 20° North  Level Estimated
12:03AM 25.7954 -80.2901 20° North  Level Estimated
12:04AM 25.7954 -80.2901 20° North  Level Estimated
12:05AM 25.7954 -80.2901 20° North  Level Estimated
12:06AM 25.7954 -80.2901 20° North  Level Estimated
12:07AM 25.7954 -80.2901 20° North  Level Estimated
12:08AM 25.7954 -80.2901 20° North  Level Estimated
12:09AM 25.7954 -80.2901 20° North  Level Estimated
12:10AM 25.7954 -80.2901 20° North  Level Estimated
12:11AM 25.7954 -80.2901 20° North  Level Estimated